createdAt,value
2023-03-25T00:01:18.530Z,12.25
2023-03-25T00:03:50.959Z,13.98
2023-03-25T00:06:18.424Z,9.48
2023-03-25T00:08:45.958Z,8.65
2023-03-25T00:11:12.984Z,9.02
2023-03-25T00:13:40.829Z,8.10
2023-03-25T00:16:10.294Z,10.85
2023-03-25T00:18:37.779Z,10.52
2023-03-25T00:21:05.614Z,7.55
2023-03-25T00:23:32.915Z,10.60
2023-03-25T00:26:03.256Z,11.13
2023-03-25T00:28:35.775Z,7.75
2023-03-25T00:31:07.214Z,4.30
2023-03-25T00:33:35.378Z,12.23
2023-03-25T00:36:04.911Z,7.47
2023-03-25T00:38:35.159Z,6.90
2023-03-25T00:41:25.320Z,7.00
2023-03-25T00:43:57.268Z,7.47
2023-03-25T00:46:28.863Z,5.20
2023-03-25T00:48:58.313Z,8.00
2023-03-25T00:51:26.816Z,10.02
2023-03-25T00:53:56.118Z,10.20
2023-03-25T00:56:24.510Z,6.85
2023-03-25T00:58:51.528Z,7.35
2023-03-25T01:01:23.829Z,5.57
2023-03-25T01:03:57.728Z,5.25
2023-03-25T01:06:32.431Z,9.15
2023-03-25T01:09:01.042Z,6.10
2023-03-25T01:11:34.608Z,6.07
2023-03-25T01:14:02.755Z,4.85
2023-03-25T01:16:29.950Z,9.20
2023-03-25T01:18:56.872Z,7.57
2023-03-25T01:21:25.363Z,10.55
2023-03-25T01:23:52.292Z,5.88
2023-03-25T01:26:19.161Z,7.50
2023-03-25T01:28:46.929Z,3.35
2023-03-25T01:31:14.969Z,6.03
2023-03-25T01:33:42.313Z,5.45
2023-03-25T01:36:12.875Z,5.45
2023-03-25T01:38:41.239Z,5.93
2023-03-25T01:41:10.132Z,6.85
2023-03-25T01:43:37.111Z,9.20
2023-03-25T01:46:04.657Z,7.32
2023-03-25T01:48:40.697Z,7.80
2023-03-25T01:51:30.326Z,6.75
2023-03-25T01:53:57.645Z,4.75
2023-03-25T01:56:30.926Z,8.45
2023-03-25T01:59:00.914Z,4.93
2023-03-25T02:01:28.345Z,6.68
2023-03-25T02:04:03.031Z,7.80
2023-03-25T02:06:47.923Z,6.97
2023-03-25T02:09:18.145Z,4.88
2023-03-25T02:11:45.329Z,8.23
2023-03-25T02:14:16.438Z,6.35
2023-03-25T02:17:07.732Z,6.72
2023-03-25T02:20:09.344Z,8.25
2023-03-25T02:23:07.669Z,6.07
2023-03-25T02:25:59.820Z,6.53
2023-03-25T02:28:52.682Z,6.05
2023-03-25T02:31:47.073Z,6.80
2023-03-25T02:34:41.929Z,8.70
2023-03-25T02:37:36.577Z,6.80
2023-03-25T02:40:11.006Z,5.40
2023-03-25T02:42:53.780Z,3.63
2023-03-25T02:45:28.034Z,8.13
2023-03-25T02:48:00.892Z,8.90
2023-03-25T02:50:34.415Z,8.65
2023-03-25T02:53:08.779Z,4.57
2023-03-25T02:55:41.515Z,9.52
2023-03-25T02:58:13.089Z,8.00
2023-03-25T03:00:40.595Z,9.70
2023-03-25T03:03:09.097Z,8.70
2023-03-25T03:05:39.814Z,9.32
2023-03-25T03:08:19.703Z,7.28
2023-03-25T03:11:16.789Z,4.68
2023-03-25T03:13:49.773Z,9.73
2023-03-25T03:16:27.114Z,7.20
2023-03-25T03:19:02.291Z,6.72
2023-03-25T03:21:40.063Z,5.93
2023-03-25T03:24:16.954Z,8.30
2023-03-25T03:26:55.963Z,8.93
2023-03-25T03:29:43.820Z,12.50
2023-03-25T03:32:21.005Z,7.45
2023-03-25T03:35:02.391Z,5.07
2023-03-25T03:37:39.902Z,7.22
2023-03-25T03:40:13.599Z,7.15
2023-03-25T03:42:45.185Z,7.72
2023-03-25T03:45:25.472Z,11.30
2023-03-25T03:47:56.863Z,6.43
2023-03-25T03:50:31.674Z,7.10
2023-03-25T03:53:36.445Z,6.55
2023-03-25T03:58:44.499Z,9.38
2023-03-25T04:01:11.434Z,7.63
2023-03-25T04:04:06.387Z,8.07
2023-03-25T04:06:38.636Z,6.32
2023-03-25T04:09:41.913Z,11.75
2023-03-25T04:12:16.035Z,8.80
2023-03-25T04:14:43.300Z,8.13
2023-03-25T04:17:10.583Z,8.93
2023-03-25T04:19:37.717Z,9.18
2023-03-25T04:22:05.648Z,12.57
2023-03-25T04:24:33.008Z,8.00
2023-03-25T04:27:03.602Z,11.20
2023-03-25T04:29:33.948Z,10.05
2023-03-25T04:32:01.648Z,10.45
2023-03-25T04:34:28.931Z,5.65
2023-03-25T04:36:57.989Z,7.88
2023-03-25T04:39:25.811Z,8.18
2023-03-25T04:41:53.886Z,11.45
2023-03-25T04:44:22.035Z,8.27
2023-03-25T04:46:49.139Z,6.53
2023-03-25T04:49:21.675Z,8.80
2023-03-25T04:51:51.519Z,10.43
2023-03-25T04:54:20.867Z,10.52
2023-03-25T04:56:49.801Z,8.90
2023-03-25T04:59:24.350Z,7.57
2023-03-25T05:01:52.799Z,10.38
2023-03-25T05:04:20.515Z,8.35
2023-03-25T05:06:50.605Z,7.38
2023-03-25T05:09:24.901Z,10.65
2023-03-25T05:11:53.583Z,10.98
2023-03-25T05:14:22.171Z,8.52
2023-03-25T05:16:49.549Z,9.07
2023-03-25T05:19:19.000Z,11.10
2023-03-25T05:21:46.498Z,11.10
2023-03-25T05:24:13.701Z,9.57
2023-03-25T05:26:42.389Z,7.82
2023-03-25T05:29:14.353Z,7.20
2023-03-25T05:31:46.398Z,12.25
2023-03-25T05:34:17.085Z,19.55
2023-03-25T05:36:44.393Z,24.77
2023-03-25T05:39:11.391Z,27.45
2023-03-25T05:41:41.685Z,23.67
2023-03-25T05:44:15.347Z,24.98
2023-03-25T05:46:42.547Z,22.63
2023-03-25T05:49:09.498Z,20.17
2023-03-25T05:51:39.229Z,16.85
2023-03-25T05:54:11.803Z,15.15
2023-03-25T05:56:39.365Z,13.23
2023-03-25T05:59:06.361Z,16.05
2023-03-25T06:01:37.826Z,10.85
2023-03-25T06:04:04.977Z,12.80
2023-03-25T06:06:34.193Z,9.10
2023-03-25T06:09:02.422Z,10.70
2023-03-25T06:11:29.833Z,8.35
2023-03-25T06:13:56.996Z,11.45
2023-03-25T06:16:29.875Z,11.57
2023-03-25T06:19:00.300Z,10.10
2023-03-25T06:21:29.737Z,11.25
2023-03-25T06:23:59.546Z,8.65
2023-03-25T06:26:26.842Z,10.50
2023-03-25T06:28:54.873Z,22.98
2023-03-25T06:31:26.555Z,11.23
2023-03-25T06:33:54.752Z,9.30
2023-03-25T06:36:21.744Z,7.18
2023-03-25T06:38:50.433Z,6.45
2023-03-25T06:44:03.290Z,8.90
